createdAt,value
2017-10-13T00:00:03.072Z,0
2017-10-13T00:05:03.358Z,0
2017-10-13T00:10:02.937Z,0
2017-10-13T00:15:03.421Z,0
2017-10-13T00:20:02.971Z,2
2017-10-13T00:25:03.430Z,2
2017-10-13T00:30:02.916Z,1
2017-10-13T00:35:03.262Z,1
2017-10-13T00:40:02.719Z,1
2017-10-13T00:45:03.051Z,2
2017-10-13T00:50:03.566Z,3
2017-10-13T00:55:02.914Z,2
2017-10-13T01:00:03.446Z,2
2017-10-13T01:05:02.952Z,2
2017-10-13T01:10:03.514Z,2
2017-10-13T01:15:02.899Z,2
2017-10-13T01:20:03.317Z,2
2017-10-13T01:25:02.677Z,0
2017-10-13T01:30:03.152Z,0
2017-10-13T01:40:03.220Z,2
2017-10-13T01:45:03.583Z,0
2017-10-13T01:50:03.035Z,1
2017-10-13T01:55:02.620Z,1
2017-10-13T02:00:02.981Z,1
2017-10-13T02:05:03.391Z,3
2017-10-13T02:10:02.884Z,3
2017-10-13T02:15:03.394Z,3
2017-10-13T02:20:02.721Z,2
2017-10-13T02:25:03.242Z,1
2017-10-13T02:30:02.713Z,3
2017-10-13T02:35:03.231Z,3
2017-10-13T02:40:02.785Z,4
2017-10-13T02:45:03.229Z,1
2017-10-13T02:50:02.788Z,2
2017-10-13T02:55:03.189Z,2
2017-10-13T03:00:03.509Z,2
2017-10-13T03:05:03.019Z,0
2017-10-13T03:10:03.482Z,0
2017-10-13T03:15:02.865Z,1
2017-10-13T03:20:03.362Z,3
2017-10-13T03:25:02.879Z,2
2017-10-13T03:30:03.388Z,3
2017-10-13T03:35:02.956Z,2
2017-10-13T03:40:03.391Z,0
2017-10-13T03:45:02.741Z,0
2017-10-13T03:50:03.309Z,0
2017-10-13T03:55:02.816Z,0
2017-10-13T04:00:03.310Z,0
2017-10-13T04:05:02.744Z,0
2017-10-13T04:10:03.166Z,0
2017-10-13T04:15:02.696Z,0
2017-10-13T04:20:03.292Z,0
2017-10-13T04:25:02.851Z,0
2017-10-13T04:30:03.424Z,0
2017-10-13T04:35:02.778Z,0
2017-10-13T04:40:03.268Z,0
2017-10-13T04:45:02.663Z,0
2017-10-13T04:50:03.138Z,0
2017-10-13T04:55:03.614Z,0
2017-10-13T05:00:03.008Z,0
2017-10-13T05:05:03.542Z,0
2017-10-13T05:10:03.079Z,0
2017-10-13T05:15:03.598Z,1
2017-10-13T05:20:03.164Z,0
2017-10-13T05:25:03.565Z,0
2017-10-13T05:30:03.032Z,0
2017-10-13T05:35:03.466Z,0
2017-10-13T05:40:02.917Z,0
2017-10-13T05:45:03.393Z,0
2017-10-13T05:50:02.883Z,1
2017-10-13T05:55:03.265Z,2
2017-10-13T06:00:02.718Z,0
2017-10-13T06:05:03.271Z,2
2017-10-13T06:10:02.709Z,2
2017-10-13T06:15:03.147Z,3
2017-10-13T06:20:02.615Z,1
2017-10-13T06:25:02.964Z,2
2017-10-13T06:30:03.464Z,3
2017-10-13T06:35:02.992Z,4
2017-10-13T06:40:02.602Z,1
2017-10-13T06:45:02.961Z,3
2017-10-13T06:50:03.377Z,3
2017-10-13T06:55:02.819Z,6
2017-10-13T07:00:03.163Z,4
2017-10-13T07:05:02.536Z,4
2017-10-13T07:10:03.078Z,4
2017-10-13T07:15:02.569Z,5
2017-10-13T07:20:03.044Z,5
2017-10-13T07:25:03.397Z,3
2017-10-13T07:30:02.935Z,3
2017-10-13T07:35:03.298Z,4
2017-10-13T07:40:02.780Z,5
2017-10-13T07:45:03.315Z,5
2017-10-13T07:50:02.657Z,6
2017-10-13T07:55:03.138Z,4
2017-10-13T08:00:03.566Z,7
2017-10-13T08:05:02.950Z,2
2017-10-13T08:10:03.520Z,6
2017-10-13T08:15:02.855Z,6
2017-10-13T08:20:03.360Z,4
2017-10-13T08:25:02.721Z,3
2017-10-13T08:30:03.144Z,5
2017-10-13T08:35:03.504Z,2
2017-10-13T08:40:02.992Z,5
2017-10-13T08:45:03.545Z,5
2017-10-13T08:50:02.936Z,4
2017-10-13T08:55:03.305Z,7
2017-10-13T09:00:02.679Z,6
2017-10-13T09:05:03.233Z,4
2017-10-13T09:10:02.774Z,2
2017-10-13T09:15:03.288Z,4
2017-10-13T09:20:02.691Z,7
2017-10-13T09:25:03.150Z,4
2017-10-13T09:30:03.547Z,5
2017-10-13T09:35:02.983Z,6
2017-10-13T09:40:03.477Z,4
2017-10-13T09:45:02.974Z,8
2017-10-13T09:50:03.450Z,8
2017-10-13T09:55:02.757Z,6
2017-10-13T10:00:03.061Z,4
2017-10-13T10:05:03.507Z,7
2017-10-13T10:10:02.936Z,3
2017-10-13T10:15:03.291Z,5
2017-10-13T10:20:02.747Z,5
2017-10-13T10:25:03.304Z,3
2017-10-13T10:30:02.850Z,7
2017-10-13T10:35:03.372Z,7
2017-10-13T10:40:02.800Z,3
2017-10-13T10:45:03.340Z,3
2017-10-13T10:50:02.869Z,2
2017-10-13T10:55:03.264Z,4
2017-10-13T11:00:02.669Z,3
2017-10-13T11:05:03.148Z,5
2017-10-13T11:10:02.662Z,2
2017-10-13T11:15:03.029Z,5
2017-10-13T11:20:03.453Z,3
2017-10-13T11:25:02.912Z,6
2017-10-13T11:30:03.368Z,5
2017-10-13T11:35:02.775Z,6
2017-10-13T11:40:03.574Z,5
2017-10-13T11:45:03.100Z,6
2017-10-13T11:50:03.519Z,7
2017-10-13T11:55:03.004Z,5
2017-10-13T12:00:03.331Z,7
2017-10-13T12:05:02.789Z,5
2017-10-13T12:10:03.199Z,3
2017-10-13T12:15:02.587Z,3
2017-10-13T12:20:03.145Z,6
2017-10-13T12:25:02.581Z,4
2017-10-13T12:30:03.101Z,7
2017-10-13T12:35:03.418Z,4
2017-10-13T12:40:02.854Z,3
2017-10-13T12:45:03.244Z,3
2017-10-13T12:50:02.739Z,7
2017-10-13T12:55:03.112Z,8
2017-10-13T13:00:02.628Z,3
2017-10-13T13:05:03.136Z,4
2017-10-13T13:10:02.696Z,5
2017-10-13T13:15:03.208Z,8
2017-10-13T13:20:02.761Z,6
2017-10-13T13:25:03.308Z,4
2017-10-13T13:30:02.809Z,7
2017-10-13T13:35:03.268Z,4
2017-10-13T13:40:02.914Z,3
2017-10-13T13:45:03.267Z,5
2017-10-13T13:50:02.763Z,4
2017-10-13T13:55:03.334Z,4
2017-10-13T14:00:02.853Z,2
2017-10-13T14:05:03.304Z,2
2017-10-13T14:10:02.807Z,3
2017-10-13T14:15:03.244Z,3
2017-10-13T14:20:02.655Z,4
2017-10-13T14:25:03.105Z,6
2017-10-13T14:30:03.538Z,6
2017-10-13T14:35:02.951Z,5
2017-10-13T14:40:03.523Z,5
2017-10-13T14:45:03.038Z,4
2017-10-13T14:50:03.515Z,7
2017-10-13T14:55:02.947Z,5
2017-10-13T15:00:03.453Z,3
2017-10-13T15:05:02.833Z,2
2017-10-13T15:10:03.402Z,2
2017-10-13T15:15:02.802Z,2
2017-10-13T15:20:03.317Z,2
2017-10-13T15:25:02.910Z,2
2017-10-13T15:30:03.463Z,3
2017-10-13T15:35:02.894Z,3
2017-10-13T15:40:03.377Z,3
2017-10-13T15:45:02.910Z,2
2017-10-13T15:50:03.307Z,3
2017-10-13T15:55:02.739Z,2
2017-10-13T16:00:03.277Z,5
2017-10-13T16:05:02.706Z,3
2017-10-13T16:10:03.233Z,4
2017-10-13T16:15:02.649Z,3
2017-10-13T16:20:03.064Z,4
2017-10-13T16:25:03.471Z,4
2017-10-13T16:30:02.831Z,3
2017-10-13T16:35:03.253Z,2
2017-10-13T16:40:02.719Z,3
2017-10-13T16:45:03.271Z,2
2017-10-13T16:50:02.717Z,1
2017-10-13T16:55:03.215Z,2
2017-10-13T17:00:02.610Z,3
2017-10-13T17:05:03.003Z,0
2017-10-13T17:10:02.638Z,3
2017-10-13T17:15:03.060Z,2
2017-10-13T17:20:02.579Z,4
2017-10-13T17:25:02.994Z,3
2017-10-13T17:30:03.515Z,3
2017-10-13T17:35:02.927Z,3
2017-10-13T17:40:03.461Z,2
2017-10-13T17:45:02.842Z,3
2017-10-13T17:50:03.349Z,2
2017-10-13T17:55:02.735Z,2
2017-10-13T18:00:03.221Z,3
2017-10-13T18:05:02.799Z,2
2017-10-13T18:10:03.322Z,2
2017-10-13T18:15:02.798Z,2
2017-10-13T18:20:03.369Z,2
2017-10-13T18:30:03.541Z,1
2017-10-13T18:35:03.093Z,2
2017-10-13T18:40:02.632Z,3
2017-10-13T18:45:03.120Z,3
2017-10-13T18:50:02.612Z,3
2017-10-13T18:55:03.131Z,3
2017-10-13T19:00:03.560Z,3
2017-10-13T19:05:03.078Z,3
2017-10-13T19:10:02.646Z,3
2017-10-13T19:15:03.065Z,3
2017-10-13T19:20:02.630Z,3
2017-10-13T19:25:03.050Z,2
2017-10-13T19:30:03.476Z,3
2017-10-13T19:35:02.908Z,2
2017-10-13T19:40:03.357Z,3
2017-10-13T19:45:02.846Z,3
2017-10-13T19:50:03.363Z,2
2017-10-13T19:55:02.738Z,2
2017-10-13T20:00:03.337Z,2
2017-10-13T20:05:02.783Z,2
2017-10-13T20:10:03.266Z,2
2017-10-13T20:15:02.808Z,3
2017-10-13T20:20:03.245Z,3
2017-10-13T20:25:02.756Z,3
2017-10-13T20:30:03.164Z,2
2017-10-13T20:35:02.711Z,2
2017-10-13T20:40:03.218Z,2
2017-10-13T20:45:02.833Z,0
2017-10-13T20:50:03.378Z,1
2017-10-13T20:55:02.906Z,2
2017-10-13T21:00:03.326Z,2
2017-10-13T21:05:02.718Z,2
2017-10-13T21:10:03.220Z,2
2017-10-13T21:15:03.555Z,2
2017-10-13T21:20:02.930Z,2
2017-10-13T21:25:03.441Z,3
2017-10-13T21:30:03.129Z,2
2017-10-13T21:35:02.673Z,3
2017-10-13T21:40:03.161Z,2
2017-10-13T21:45:02.626Z,1
2017-10-13T21:50:03.075Z,2
2017-10-13T21:55:03.441Z,3
2017-10-13T22:00:02.891Z,3
2017-10-13T22:05:03.285Z,2
2017-10-13T22:10:02.755Z,3
2017-10-13T22:15:03.243Z,5
2017-10-13T22:20:02.690Z,4
2017-10-13T22:25:03.194Z,3
2017-10-13T22:30:02.682Z,4
2017-10-13T22:35:03.202Z,2
2017-10-13T22:40:02.742Z,2
2017-10-13T22:45:03.097Z,2
2017-10-13T22:50:03.488Z,3
2017-10-13T22:55:03.046Z,4
2017-10-13T23:00:04.308Z,2
2017-10-13T23:05:02.928Z,3
2017-10-13T23:10:03.518Z,2
2017-10-13T23:15:02.988Z,3
2017-10-13T23:20:03.433Z,1
2017-10-13T23:25:02.870Z,2
2017-10-13T23:30:03.329Z,3
2017-10-13T23:35:02.773Z,3
2017-10-13T23:40:03.252Z,3
2017-10-13T23:45:02.569Z,3
2017-10-13T23:50:02.962Z,5
2017-10-13T23:55:03.431Z,5
